Clarksburg, WV

5:27 PM EST on February 19, 2017 (GMT -0500)
Adamston | | Change Station

Elev 1104 ft 39.29 °N, 80.36 °W | Updated 9 seconds ago

Overcast
Overcast
53.4 °F
Feels Like 53.4 °F
N
4.2
Wind Variable Wind from ESE

Today
High -- | Low -- °F
--% Chance of Precip.
Yesterday
High -- | Low -- °F
Precip. -- in
Pressure 30.07 in
Visibility 9.0 miles
Clouds Overcast 2400 ft
Dew Point 46 °F
Humidity 77%
Rainfall 0.00 in
Snow Depth Not available.
7:07 AM 6:03 PM
Last Quarter, 40% visible
METAR KCKB 192153Z 23009KT 9SM OVC024 12/07 A3008 RMK AO2 SLP182 T01170067
Pressure 30.07 in
Visibility 9.0 miles
Clouds Overcast 2400 ft
Dew Point 46 °F
Humidity 77%
Rainfall 0.00 in
Snow Depth Not available.
7:07 AM 6:03 PM
Last Quarter, 40% visible
METAR KCKB 192153Z 23009KT 9SM OVC024 12/07 A3008 RMK AO2 SLP182 T01170067

Get Your Daily Forecast Email!

Thanks for signing up!

Be on the lookout for a verification email in your inbox.

You'll start receiving the daily forecast at 8 AM.

×

10-Day Weather Forecast

Almanac

Astronomy

Feb. 19, 2017 Rise Set
Actual Time
Civil Twilight
Nautical Twilight
Astronomical Twilight
Moon
Length of Visible Light
Length of Day
Tomorrow will be .
, % of the Moon is Illuminated

Today's Extremes

State Highs State Lows

Community

WunderPhotos

Upload Photos

1,962,540 photos uploaded!

WunderBlog® & News

Nearby

Air Quality

  Air Quality AQ Index Pollutant
Not available.

Snow Depth

Station Depth Elevation

Earthquake Activity

City Distance Mag. Time & Date
Minimum magnitude displayed is 2.5.

Coastal Water Temperatures

Place Temperature

Stations

Nearby Weather Stations

Station Location Temp. Windchill Dew Point Humidity Wind Precip. Elev Updated Type
                   

Watches & Warnings

There are currently no watches in effect.